sensor_id;sensor_type;location;lat;lon;timestamp;P1;durP1;ratioP1;P2;durP2;ratioP2
16246;SDS011;8231;50.866;7.944;2023-11-19T00:00:11;5.20;;;4.15;;
16246;SDS011;8231;50.866;7.944;2023-11-19T00:02:41;3.53;;;2.92;;
16246;SDS011;8231;50.866;7.944;2023-11-19T00:05:11;2.90;;;2.60;;
16246;SDS011;8231;50.866;7.944;2023-11-19T00:07:40;5.97;;;5.68;;
16246;SDS011;8231;50.866;7.944;2023-11-19T00:10:08;1.17;;;0.80;;
16246;SDS011;8231;50.866;7.944;2023-11-19T00:12:37;1.23;;;1.13;;
16246;SDS011;8231;50.866;7.944;2023-11-19T00:15:06;1.73;;;1.63;;
16246;SDS011;8231;50.866;7.944;2023-11-19T00:17:38;1.10;;;1.00;;
16246;SDS011;8231;50.866;7.944;2023-11-19T00:20:12;1.27;;;1.17;;
16246;SDS011;8231;50.866;7.944;2023-11-19T00:22:41;3.67;;;2.17;;
16246;SDS011;8231;50.866;7.944;2023-11-19T00:25:13;2.72;;;2.53;;
16246;SDS011;8231;50.866;7.944;2023-11-19T00:27:42;2.20;;;1.98;;
16246;SDS011;8231;50.866;7.944;2023-11-19T00:30:11;2.25;;;1.85;;
16246;SDS011;8231;50.866;7.944;2023-11-19T00:32:40;3.45;;;1.65;;
16246;SDS011;8231;50.866;7.944;2023-11-19T00:35:09;8.30;;;7.93;;
16246;SDS011;8231;50.866;7.944;2023-11-19T00:37:39;1.77;;;1.10;;
16246;SDS011;8231;50.866;7.944;2023-11-19T00:40:09;0.80;;;0.73;;
16246;SDS011;8231;50.866;7.944;2023-11-19T00:42:38;1.38;;;1.27;;
16246;SDS011;8231;50.866;7.944;2023-11-19T00:45:07;1.50;;;1.40;;
16246;SDS011;8231;50.866;7.944;2023-11-19T00:47:37;1.30;;;1.20;;
16246;SDS011;8231;50.866;7.944;2023-11-19T00:50:06;1.40;;;1.30;;
16246;SDS011;8231;50.866;7.944;2023-11-19T00:52:36;1.33;;;1.23;;
16246;SDS011;8231;50.866;7.944;2023-11-19T00:55:07;1.50;;;1.40;;
16246;SDS011;8231;50.866;7.944;2023-11-19T00:57:35;1.08;;;1.00;;
16246;SDS011;8231;50.866;7.944;2023-11-19T01:00:06;4.20;;;4.00;;
16246;SDS011;8231;50.866;7.944;2023-11-19T01:02:47;2.08;;;1.83;;
16246;SDS011;8231;50.866;7.944;2023-11-19T01:05:18;1.27;;;1.17;;
16246;SDS011;8231;50.866;7.944;2023-11-19T01:07:51;2.67;;;2.47;;
16246;SDS011;8231;50.866;7.944;2023-11-19T01:10:21;0.82;;;0.82;;
16246;SDS011;8231;50.866;7.944;2023-11-19T01:12:50;1.30;;;1.20;;
16246;SDS011;8231;50.866;7.944;2023-11-19T01:15:18;3.22;;;2.95;;
16246;SDS011;8231;50.866;7.944;2023-11-19T01:17:47;1.35;;;1.00;;
16246;SDS011;8231;50.866;7.944;2023-11-19T01:20:19;0.98;;;0.98;;
16246;SDS011;8231;50.866;7.944;2023-11-19T01:22:48;0.70;;;0.70;;
16246;SDS011;8231;50.866;7.944;2023-11-19T01:25:18;0.90;;;0.90;;
16246;SDS011;8231;50.866;7.944;2023-11-19T01:27:47;1.25;;;0.90;;
16246;SDS011;8231;50.866;7.944;2023-11-19T01:30:16;1.30;;;0.75;;
16246;SDS011;8231;50.866;7.944;2023-11-19T01:32:48;2.22;;;2.13;;
16246;SDS011;8231;50.866;7.944;2023-11-19T01:35:16;1.98;;;1.88;;
16246;SDS011;8231;50.866;7.944;2023-11-19T01:37:45;1.10;;;0.93;;
16246;SDS011;8231;50.866;7.944;2023-11-19T01:40:14;1.40;;;0.90;;
16246;SDS011;8231;50.866;7.944;2023-11-19T01:42:43;1.42;;;0.90;;
16246;SDS011;8231;50.866;7.944;2023-11-19T01:45:16;2.38;;;0.98;;
16246;SDS011;8231;50.866;7.944;2023-11-19T01:47:54;1.48;;;0.80;;
16246;SDS011;8231;50.866;7.944;2023-11-19T01:50:23;1.20;;;1.10;;
16246;SDS011;8231;50.866;7.944;2023-11-19T01:52:52;4.47;;;4.28;;
16246;SDS011;8231;50.866;7.944;2023-11-19T01:55:22;1.20;;;1.10;;
16246;SDS011;8231;50.866;7.944;2023-11-19T01:57:54;1.77;;;1.67;;
16246;SDS011;8231;50.866;7.944;2023-11-19T02:00:27;1.08;;;0.80;;
16246;SDS011;8231;50.866;7.944;2023-11-19T02:02:55;1.50;;;1.40;;
16246;SDS011;8231;50.866;7.944;2023-11-19T02:05:24;0.73;;;0.73;;
16246;SDS011;8231;50.866;7.944;2023-11-19T02:07:53;4.03;;;1.10;;
16246;SDS011;8231;50.866;7.944;2023-11-19T02:10:23;2.10;;;2.00;;
16246;SDS011;8231;50.866;7.944;2023-11-19T02:12:51;0.80;;;0.70;;
16246;SDS011;8231;50.866;7.944;2023-11-19T02:15:32;0.90;;;0.82;;
16246;SDS011;8231;50.866;7.944;2023-11-19T02:20:57;15.68;;;14.82;;
16246;SDS011;8231;50.866;7.944;2023-11-19T02:23:26;0.50;;;0.50;;
16246;SDS011;8231;50.866;7.944;2023-11-19T02:26:09;2.88;;;2.75;;
16246;SDS011;8231;50.866;7.944;2023-11-19T02:28:43;2.05;;;1.95;;
16246;SDS011;8231;50.866;7.944;2023-11-19T02:31:12;0.80;;;0.80;;
16246;SDS011;8231;50.866;7.944;2023-11-19T02:33:40;0.60;;;0.60;;
16246;SDS011;8231;50.866;7.944;2023-11-19T02:36:09;10.10;;;9.73;;
16246;SDS011;8231;50.866;7.944;2023-11-19T02:38:37;0.98;;;0.70;;
16246;SDS011;8231;50.866;7.944;2023-11-19T02:41:06;9.48;;;9.00;;
16246;SDS011;8231;50.866;7.944;2023-11-19T02:43:36;4.32;;;4.13;;
16246;SDS011;8231;50.866;7.944;2023-11-19T02:46:07;0.98;;;0.98;;
16246;SDS011;8231;50.866;7.944;2023-11-19T02:48:38;2.50;;;2.40;;
16246;SDS011;8231;50.866;7.944;2023-11-19T02:51:06;2.55;;;2.35;;
16246;SDS011;8231;50.866;7.944;2023-11-19T02:53:36;1.17;;;1.00;;
16246;SDS011;8231;50.866;7.944;2023-11-19T02:56:07;1.75;;;0.98;;
16246;SDS011;8231;50.866;7.944;2023-11-19T02:58:46;4.97;;;4.72;;
16246;SDS011;8231;50.866;7.944;2023-11-19T03:01:22;0.98;;;0.88;;
16246;SDS011;8231;50.866;7.944;2023-11-19T03:03:57;2.47;;;0.98;;
16246;SDS011;8231;50.866;7.944;2023-11-19T03:06:28;16.58;;;15.73;;
16246;SDS011;8231;50.866;7.944;2023-11-19T03:08:57;0.80;;;0.80;;
16246;SDS011;8231;50.866;7.944;2023-11-19T03:11:25;1.40;;;1.23;;
16246;SDS011;8231;50.866;7.944;2023-11-19T03:13:53;8.98;;;8.57;;
16246;SDS011;8231;50.866;7.944;2023-11-19T03:16:23;0.77;;;0.77;;
16246;SDS011;8231;50.866;7.944;2023-11-19T03:18:51;1.20;;;1.02;;
16246;SDS011;8231;50.866;7.944;2023-11-19T03:21:19;1.48;;;1.30;;
16246;SDS011;8231;50.866;7.944;2023-11-19T03:23:54;3.05;;;2.85;;
16246;SDS011;8231;50.866;7.944;2023-11-19T03:26:22;1.00;;;0.90;;
16246;SDS011;8231;50.866;7.944;2023-11-19T03:28:50;1.35;;;0.88;;
16246;SDS011;8231;50.866;7.944;2023-11-19T03:31:18;3.00;;;1.63;;
16246;SDS011;8231;50.866;7.944;2023-11-19T03:33:48;3.50;;;3.25;;
16246;SDS011;8231;50.866;7.944;2023-11-19T03:36:16;5.95;;;5.57;;
16246;SDS011;8231;50.866;7.944;2023-11-19T03:38:45;4.47;;;0.90;;
16246;SDS011;8231;50.866;7.944;2023-11-19T03:41:14;1.90;;;1.80;;
16246;SDS011;8231;50.866;7.944;2023-11-19T03:43:43;2.25;;;1.30;;
16246;SDS011;8231;50.866;7.944;2023-11-19T03:46:18;4.32;;;4.05;;
16246;SDS011;8231;50.866;7.944;2023-11-19T03:48:46;1.45;;;1.00;;
16246;SDS011;8231;50.866;7.944;2023-11-19T03:51:16;9.27;;;8.57;;
16246;SDS011;8231;50.866;7.944;2023-11-19T03:53:45;1.75;;;1.65;;
16246;SDS011;8231;50.866;7.944;2023-11-19T03:56:13;1.65;;;1.55;;
16246;SDS011;8231;50.866;7.944;2023-11-19T03:58:42;1.00;;;0.85;;
16246;SDS011;8231;50.866;7.944;2023-11-19T04:01:11;1.67;;;1.00;;
16246;SDS011;8231;50.866;7.944;2023-11-19T04:03:40;1.67;;;1.58;;
16246;SDS011;8231;50.866;7.944;2023-11-19T04:06:13;5.15;;;4.38;;
16246;SDS011;8231;50.866;7.944;2023-11-19T04:08:41;3.38;;;0.98;;
16246;SDS011;8231;50.866;7.944;2023-11-19T04:11:10;0.90;;;0.80;;
16246;SDS011;8231;50.866;7.944;2023-11-19T04:13:38;1.00;;;1.00;;
16246;SDS011;8231;50.866;7.944;2023-11-19T04:16:06;3.83;;;0.88;;
16246;SDS011;8231;50.866;7.944;2023-11-19T04:18:35;1.98;;;1.08;;
16246;SDS011;8231;50.866;7.944;2023-11-19T04:21:05;4.00;;;1.05;;
16246;SDS011;8231;50.866;7.944;2023-11-19T04:23:35;1.38;;;0.80;;
16246;SDS011;8231;50.866;7.944;2023-11-19T04:26:03;1.85;;;0.85;;
16246;SDS011;8231;50.866;7.944;2023-11-19T04:28:36;5.80;;;5.45;;
16246;SDS011;8231;50.866;7.944;2023-11-19T04:31:04;3.70;;;3.42;;
16246;SDS011;8231;50.866;7.944;2023-11-19T04:33:33;2.25;;;0.88;;
16246;SDS011;8231;50.866;7.944;2023-11-19T04:36:01;2.78;;;2.67;;
16246;SDS011;8231;50.866;7.944;2023-11-19T04:38:29;1.45;;;1.23;;
16246;SDS011;8231;50.866;7.944;2023-11-19T04:40:59;8.55;;;8.05;;
16246;SDS011;8231;50.866;7.944;2023-11-19T04:43:28;2.28;;;1.05;;
16246;SDS011;8231;50.866;7.944;2023-11-19T04:45:56;6.18;;;5.68;;
16246;SDS011;8231;50.866;7.944;2023-11-19T04:48:25;3.33;;;1.98;;
16246;SDS011;8231;50.866;7.944;2023-11-19T04:50:53;3.85;;;3.45;;
16246;SDS011;8231;50.866;7.944;2023-11-19T04:53:21;3.03;;;2.08;;
16246;SDS011;8231;50.866;7.944;2023-11-19T04:55:49;3.22;;;1.05;;
16246;SDS011;8231;50.866;7.944;2023-11-19T04:58:19;5.22;;;2.83;;
16246;SDS011;8231;50.866;7.944;2023-11-19T05:00:47;2.05;;;1.77;;
16246;SDS011;8231;50.866;7.944;2023-11-19T05:03:15;4.20;;;1.27;;
16246;SDS011;8231;50.866;7.944;2023-11-19T05:05:44;6.00;;;1.40;;
16246;SDS011;8231;50.866;7.944;2023-11-19T05:08:12;3.53;;;2.58;;
16246;SDS011;8231;50.866;7.944;2023-11-19T05:10:40;2.42;;;1.00;;
16246;SDS011;8231;50.866;7.944;2023-11-19T05:13:08;3.67;;;3.25;;
16246;SDS011;8231;50.866;7.944;2023-11-19T05:15:38;6.50;;;1.50;;
16246;SDS011;8231;50.866;7.944;2023-11-19T05:18:06;5.00;;;1.50;;
16246;SDS011;8231;50.866;7.944;2023-11-19T05:20:35;5.78;;;1.70;;
16246;SDS011;8231;50.866;7.944;2023-11-19T05:23:03;3.88;;;1.17;;
16246;SDS011;8231;50.866;7.944;2023-11-19T05:25:31;3.85;;;1.65;;
16246;SDS011;8231;50.866;7.944;2023-11-19T05:27:59;5.05;;;1.65;;
16246;SDS011;8231;50.866;7.944;2023-11-19T05:30:27;9.55;;;2.42;;
16246;SDS011;8231;50.866;7.944;2023-11-19T05:32:57;5.88;;;5.28;;
16246;SDS011;8231;50.866;7.944;2023-11-19T05:35:25;3.72;;;3.05;;
16246;SDS011;8231;50.866;7.944;2023-11-19T05:37:53;2.72;;;1.92;;
16246;SDS011;8231;50.866;7.944;2023-11-19T05:40:22;1.60;;;1.45;;
16246;SDS011;8231;50.866;7.944;2023-11-19T05:42:50;1.63;;;1.02;;
16246;SDS011;8231;50.866;7.944;2023-11-19T05:45:19;4.50;;;4.07;;
16246;SDS011;8231;50.866;7.944;2023-11-19T05:47:47;2.28;;;1.33;;
16246;SDS011;8231;50.866;7.944;2023-11-19T05:50:16;5.15;;;4.47;;
16246;SDS011;8231;50.866;7.944;2023-11-19T05:52:44;27.80;;;25.58;;
16246;SDS011;8231;50.866;7.944;2023-11-19T05:55:13;10.48;;;6.88;;
16246;SDS011;8231;50.866;7.944;2023-11-19T05:57:41;4.68;;;1.58;;
16246;SDS011;8231;50.866;7.944;2023-11-19T06:00:13;5.15;;;2.03;;
16246;SDS011;8231;50.866;7.944;2023-11-19T06:02:42;4.10;;;2.78;;
16246;SDS011;8231;50.866;7.944;2023-11-19T06:05:10;3.97;;;1.52;;
16246;SDS011;8231;50.866;7.944;2023-11-19T06:07:40;2.85;;;1.33;;
16246;SDS011;8231;50.866;7.944;2023-11-19T06:10:09;7.13;;;1.42;;
16246;SDS011;8231;50.866;7.944;2023-11-19T06:12:39;9.63;;;2.15;;
16246;SDS011;8231;50.866;7.944;2023-11-19T06:15:08;4.85;;;2.00;;
16246;SDS011;8231;50.866;7.944;2023-11-19T06:17:36;8.65;;;2.08;;
16246;SDS011;8231;50.866;7.944;2023-11-19T06:20:05;7.47;;;2.28;;
16246;SDS011;8231;50.866;7.944;2023-11-19T06:22:35;7.80;;;2.15;;
16246;SDS011;8231;50.866;7.944;2023-11-19T06:25:05;4.85;;;2.10;;
16246;SDS011;8231;50.866;7.944;2023-11-19T06:27:34;8.27;;;2.60;;
16246;SDS011;8231;50.866;7.944;2023-11-19T06:30:02;8.38;;;2.60;;
16246;SDS011;8231;50.866;7.944;2023-11-19T06:32:33;8.60;;;2.15;;
16246;SDS011;8231;50.866;7.944;2023-11-19T06:35:01;5.00;;;1.98;;
16246;SDS011;8231;50.866;7.944;2023-11-19T06:37:31;8.10;;;2.20;;
16246;SDS011;8231;50.866;7.944;2023-11-19T06:40:01;9.85;;;7.75;;
16246;SDS011;8231;50.866;7.944;2023-11-19T06:42:32;12.32;;;2.10;;
16246;SDS011;8231;50.866;7.944;2023-11-19T06:45:00;6.72;;;2.63;;
16246;SDS011;8231;50.866;7.944;2023-11-19T06:47:29;7.18;;;2.00;;
16246;SDS011;8231;50.866;7.944;2023-11-19T06:49:58;8.05;;;2.50;;
16246;SDS011;8231;50.866;7.944;2023-11-19T06:52:27;9.27;;;1.90;;
16246;SDS011;8231;50.866;7.944;2023-11-19T06:54:56;6.72;;;2.25;;
16246;SDS011;8231;50.866;7.944;2023-11-19T06:57:27;11.98;;;2.90;;
16246;SDS011;8231;50.866;7.944;2023-11-19T06:59:58;10.63;;;2.72;;
16246;SDS011;8231;50.866;7.944;2023-11-19T07:02:26;11.70;;;4.90;;
16246;SDS011;8231;50.866;7.944;2023-11-19T07:04:54;9.07;;;2.80;;
16246;SDS011;8231;50.866;7.944;2023-11-19T07:07:23;7.82;;;2.85;;
16246;SDS011;8231;50.866;7.944;2023-11-19T07:09:52;13.82;;;3.38;;
16246;SDS011;8231;50.866;7.944;2023-11-19T07:12:20;13.68;;;7.80;;
16246;SDS011;8231;50.866;7.944;2023-11-19T07:14:49;14.57;;;3.53;;
16246;SDS011;8231;50.866;7.944;2023-11-19T07:17:19;10.35;;;2.60;;
16246;SDS011;8231;50.866;7.944;2023-11-19T07:19:49;7.22;;;3.35;;
16246;SDS011;8231;50.866;7.944;2023-11-19T07:22:18;14.15;;;3.10;;
16246;SDS011;8231;50.866;7.944;2023-11-19T07:24:46;6.70;;;2.13;;
16246;SDS011;8231;50.866;7.944;2023-11-19T07:27:15;13.07;;;4.00;;
16246;SDS011;8231;50.866;7.944;2023-11-19T07:29:43;8.75;;;3.35;;
16246;SDS011;8231;50.866;7.944;2023-11-19T07:32:12;10.88;;;3.70;;
16246;SDS011;8231;50.866;7.944;2023-11-19T07:34:42;11.10;;;2.92;;
16246;SDS011;8231;50.866;7.944;2023-11-19T07:37:11;12.23;;;3.78;;
16246;SDS011;8231;50.866;7.944;2023-11-19T07:39:40;9.52;;;3.75;;
16246;SDS011;8231;50.866;7.944;2023-11-19T07:42:08;11.10;;;2.95;;
16246;SDS011;8231;50.866;7.944;2023-11-19T07:44:36;9.45;;;3.00;;
16246;SDS011;8231;50.866;7.944;2023-11-19T07:47:05;10.15;;;3.58;;
16246;SDS011;8231;50.866;7.944;2023-11-19T07:49:33;11.90;;;3.13;;
16246;SDS011;8231;50.866;7.944;2023-11-19T07:52:02;16.27;;;5.18;;
16246;SDS011;8231;50.866;7.944;2023-11-19T07:54:47;14.20;;;3.58;;
16246;SDS011;8231;50.866;7.944;2023-11-19T07:57:15;12.68;;;3.90;;
16246;SDS011;8231;50.866;7.944;2023-11-19T07:59:43;13.93;;;3.67;;
16246;SDS011;8231;50.866;7.944;2023-11-19T08:02:12;6.97;;;2.72;;
16246;SDS011;8231;50.866;7.944;2023-11-19T08:04:41;12.63;;;3.25;;
16246;SDS011;8231;50.866;7.944;2023-11-19T08:07:13;10.27;;;3.28;;
16246;SDS011;8231;50.866;7.944;2023-11-19T08:09:42;9.48;;;4.43;;
16246;SDS011;8231;50.866;7.944;2023-11-19T08:12:10;14.68;;;3.20;;
16246;SDS011;8231;50.866;7.944;2023-11-19T08:14:41;14.35;;;4.35;;
16246;SDS011;8231;50.866;7.944;2023-11-19T08:17:10;16.08;;;6.05;;
16246;SDS011;8231;50.866;7.944;2023-11-19T08:19:38;12.77;;;3.30;;
16246;SDS011;8231;50.866;7.944;2023-11-19T08:22:06;8.15;;;3.05;;
16246;SDS011;8231;50.866;7.944;2023-11-19T08:24:36;11.63;;;4.60;;
16246;SDS011;8231;50.866;7.944;2023-11-19T08:27:04;19.63;;;6.63;;
16246;SDS011;8231;50.866;7.944;2023-11-19T08:29:33;14.88;;;4.40;;
16246;SDS011;8231;50.866;7.944;2023-11-19T08:32:02;14.65;;;3.50;;
16246;SDS011;8231;50.866;7.944;2023-11-19T08:34:31;15.88;;;3.83;;
16246;SDS011;8231;50.866;7.944;2023-11-19T08:36:59;16.02;;;9.02;;
16246;SDS011;8231;50.866;7.944;2023-11-19T08:39:27;17.52;;;5.97;;
16246;SDS011;8231;50.866;7.944;2023-11-19T08:41:58;13.00;;;4.63;;
16246;SDS011;8231;50.866;7.944;2023-11-19T08:44:26;9.98;;;3.78;;
16246;SDS011;8231;50.866;7.944;2023-11-19T08:46:54;17.38;;;4.40;;
16246;SDS011;8231;50.866;7.944;2023-11-19T08:49:22;13.45;;;5.78;;
16246;SDS011;8231;50.866;7.944;2023-11-19T08:51:50;13.93;;;3.78;;
16246;SDS011;8231;50.866;7.944;2023-11-19T08:54:19;16.95;;;8.05;;
16246;SDS011;8231;50.866;7.944;2023-11-19T08:56:49;13.82;;;3.83;;
16246;SDS011;8231;50.866;7.944;2023-11-19T08:59:18;15.93;;;5.45;;
16246;SDS011;8231;50.866;7.944;2023-11-19T09:01:47;16.60;;;5.60;;
16246;SDS011;8231;50.866;7.944;2023-11-19T09:04:15;12.48;;;5.15;;
16246;SDS011;8231;50.866;7.944;2023-11-19T09:06:43;12.15;;;4.25;;
16246;SDS011;8231;50.866;7.944;2023-11-19T09:09:11;17.85;;;5.18;;
16246;SDS011;8231;50.866;7.944;2023-11-19T09:11:40;15.55;;;4.75;;
16246;SDS011;8231;50.866;7.944;2023-11-19T09:14:09;15.90;;;7.95;;
16246;SDS011;8231;50.866;7.944;2023-11-19T09:16:38;13.60;;;6.95;;
16246;SDS011;8231;50.866;7.944;2023-11-19T09:19:06;13.18;;;4.70;;
16246;SDS011;8231;50.866;7.944;2023-11-19T09:21:34;13.57;;;4.70;;
16246;SDS011;8231;50.866;7.944;2023-11-19T09:24:05;15.77;;;4.28;;
16246;SDS011;8231;50.866;7.944;2023-11-19T09:26:34;15.63;;;4.18;;
16246;SDS011;8231;50.866;7.944;2023-11-19T09:29:03;15.40;;;4.95;;
16246;SDS011;8231;50.866;7.944;2023-11-19T09:31:32;16.20;;;4.70;;
16246;SDS011;8231;50.866;7.944;2023-11-19T09:34:01;15.93;;;7.53;;
16246;SDS011;8231;50.866;7.944;2023-11-19T09:36:30;17.17;;;10.63;;
16246;SDS011;8231;50.866;7.944;2023-11-19T09:38:58;14.63;;;4.50;;
16246;SDS011;8231;50.866;7.944;2023-11-19T09:41:28;14.35;;;4.75;;
16246;SDS011;8231;50.866;7.944;2023-11-19T09:43:58;13.75;;;3.70;;
16246;SDS011;8231;50.866;7.944;2023-11-19T09:46:26;16.33;;;4.85;;
16246;SDS011;8231;50.866;7.944;2023-11-19T09:48:56;17.23;;;5.20;;
16246;SDS011;8231;50.866;7.944;2023-11-19T09:51:27;19.35;;;4.45;;
16246;SDS011;8231;50.866;7.944;2023-11-19T09:53:55;16.73;;;4.63;;
16246;SDS011;8231;50.866;7.944;2023-11-19T09:56:24;16.15;;;4.68;;
16246;SDS011;8231;50.866;7.944;2023-11-19T09:58:53;17.33;;;5.93;;
16246;SDS011;8231;50.866;7.944;2023-11-19T10:01:21;14.65;;;3.85;;
16246;SDS011;8231;50.866;7.944;2023-11-19T10:03:55;9.98;;;4.63;;
16246;SDS011;8231;50.866;7.944;2023-11-19T10:06:24;16.95;;;4.22;;
16246;SDS011;8231;50.866;7.944;2023-11-19T10:08:55;17.70;;;4.50;;
16246;SDS011;8231;50.866;7.944;2023-11-19T10:11:24;15.57;;;4.35;;
16246;SDS011;8231;50.866;7.944;2023-11-19T10:13:52;15.25;;;3.88;;
16246;SDS011;8231;50.866;7.944;2023-11-19T10:16:24;14.48;;;4.43;;
16246;SDS011;8231;50.866;7.944;2023-11-19T10:18:57;14.25;;;3.90;;
16246;SDS011;8231;50.866;7.944;2023-11-19T10:21:25;10.93;;;3.78;;
16246;SDS011;8231;50.866;7.944;2023-11-19T10:23:55;16.77;;;5.90;;
16246;SDS011;8231;50.866;7.944;2023-11-19T10:26:27;16.27;;;4.80;;
16246;SDS011;8231;50.866;7.944;2023-11-19T10:28:55;18.70;;;4.10;;
16246;SDS011;8231;50.866;7.944;2023-11-19T10:31:24;12.57;;;4.22;;
16246;SDS011;8231;50.866;7.944;2023-11-19T10:33:53;12.30;;;3.58;;
16246;SDS011;8231;50.866;7.944;2023-11-19T10:36:21;17.65;;;5.85;;
16246;SDS011;8231;50.866;7.944;2023-11-19T10:38:51;15.70;;;3.95;;
16246;SDS011;8231;50.866;7.944;2023-11-19T10:41:30;19.40;;;4.97;;
16246;SDS011;8231;50.866;7.944;2023-11-19T10:43:59;15.15;;;6.03;;
16246;SDS011;8231;50.866;7.944;2023-11-19T10:46:37;18.88;;;5.03;;
16246;SDS011;8231;50.866;7.944;2023-11-19T10:49:07;15.02;;;3.95;;
16246;SDS011;8231;50.866;7.944;2023-11-19T10:51:36;15.82;;;5.10;;
16246;SDS011;8231;50.866;7.944;2023-11-19T10:54:07;18.45;;;4.70;;
16246;SDS011;8231;50.866;7.944;2023-11-19T10:56:37;16.17;;;5.22;;
16246;SDS011;8231;50.866;7.944;2023-11-19T10:59:08;26.67;;;15.20;;
16246;SDS011;8231;50.866;7.944;2023-11-19T11:01:43;14.70;;;5.38;;
16246;SDS011;8231;50.866;7.944;2023-11-19T11:04:13;16.10;;;4.60;;
16246;SDS011;8231;50.866;7.944;2023-11-19T11:06:42;13.82;;;3.63;;
16246;SDS011;8231;50.866;7.944;2023-11-19T11:09:11;17.80;;;5.00;;
16246;SDS011;8231;50.866;7.944;2023-11-19T11:11:43;15.65;;;3.92;;
16246;SDS011;8231;50.866;7.944;2023-11-19T11:14:15;14.43;;;4.00;;
16246;SDS011;8231;50.866;7.944;2023-11-19T11:16:46;13.95;;;4.57;;
16246;SDS011;8231;50.866;7.944;2023-11-19T11:19:16;12.93;;;3.83;;
16246;SDS011;8231;50.866;7.944;2023-11-19T11:21:45;15.45;;;5.22;;
16246;SDS011;8231;50.866;7.944;2023-11-19T11:24:33;17.33;;;7.13;;
16246;SDS011;8231;50.866;7.944;2023-11-19T11:27:23;14.45;;;3.85;;
16246;SDS011;8231;50.866;7.944;2023-11-19T11:30:13;16.45;;;4.78;;
16246;SDS011;8231;50.866;7.944;2023-11-19T11:32:59;13.77;;;4.03;;
16246;SDS011;8231;50.866;7.944;2023-11-19T11:35:45;17.67;;;5.00;;
16246;SDS011;8231;50.866;7.944;2023-11-19T11:38:21;18.55;;;4.63;;
16246;SDS011;8231;50.866;7.944;2023-11-19T11:43:48;18.88;;;5.13;;
16246;SDS011;8231;50.866;7.944;2023-11-19T11:49:30;15.05;;;4.90;;
16246;SDS011;8231;50.866;7.944;2023-11-19T11:52:02;15.25;;;4.28;;
16246;SDS011;8231;50.866;7.944;2023-11-19T11:54:31;38.00;;;25.15;;
16246;SDS011;8231;50.866;7.944;2023-11-19T11:57:02;11.52;;;4.22;;
16246;SDS011;8231;50.866;7.944;2023-11-19T11:59:41;15.55;;;4.25;;
16246;SDS011;8231;50.866;7.944;2023-11-19T12:02:11;13.07;;;4.40;;
16246;SDS011;8231;50.866;7.944;2023-11-19T12:04:41;14.18;;;4.35;;
16246;SDS011;8231;50.866;7.944;2023-11-19T12:07:12;13.55;;;4.05;;
16246;SDS011;8231;50.866;7.944;2023-11-19T12:09:42;23.58;;;4.53;;
16246;SDS011;8231;50.866;7.944;2023-11-19T12:12:17;12.38;;;3.53;;
16246;SDS011;8231;50.866;7.944;2023-11-19T12:15:04;27.67;;;5.18;;
16246;SDS011;8231;50.866;7.944;2023-11-19T12:17:43;13.65;;;5.85;;
16246;SDS011;8231;50.866;7.944;2023-11-19T12:20:18;15.20;;;3.97;;
16246;SDS011;8231;50.866;7.944;2023-11-19T12:22:51;12.60;;;5.22;;
16246;SDS011;8231;50.866;7.944;2023-11-19T12:25:20;12.40;;;6.72;;
16246;SDS011;8231;50.866;7.944;2023-11-19T12:27:49;13.35;;;4.47;;
16246;SDS011;8231;50.866;7.944;2023-11-19T12:30:22;19.67;;;7.28;;
16246;SDS011;8231;50.866;7.944;2023-11-19T12:32:53;20.10;;;10.52;;
16246;SDS011;8231;50.866;7.944;2023-11-19T12:35:22;15.80;;;11.35;;
16246;SDS011;8231;50.866;7.944;2023-11-19T12:37:51;13.50;;;3.67;;
16246;SDS011;8231;50.866;7.944;2023-11-19T12:40:21;15.75;;;4.63;;
16246;SDS011;8231;50.866;7.944;2023-11-19T12:42:51;11.40;;;4.75;;
16246;SDS011;8231;50.866;7.944;2023-11-19T12:45:22;11.25;;;4.05;;
16246;SDS011;8231;50.866;7.944;2023-11-19T12:48:04;14.32;;;5.72;;
16246;SDS011;8231;50.866;7.944;2023-11-19T12:53:19;13.57;;;4.53;;
16246;SDS011;8231;50.866;7.944;2023-11-19T12:55:48;15.80;;;4.53;;
16246;SDS011;8231;50.866;7.944;2023-11-19T12:58:29;15.98;;;4.70;;
16246;SDS011;8231;50.866;7.944;2023-11-19T13:01:03;11.32;;;4.05;;
16246;SDS011;8231;50.866;7.944;2023-11-19T13:03:33;11.60;;;4.50;;
16246;SDS011;8231;50.866;7.944;2023-11-19T13:06:02;12.55;;;3.55;;
16246;SDS011;8231;50.866;7.944;2023-11-19T13:08:35;9.85;;;3.97;;
16246;SDS011;8231;50.866;7.944;2023-11-19T13:11:05;14.57;;;4.68;;
16246;SDS011;8231;50.866;7.944;2023-11-19T13:13:54;13.60;;;4.55;;
16246;SDS011;8231;50.866;7.944;2023-11-19T13:16:24;14.90;;;5.53;;
16246;SDS011;8231;50.866;7.944;2023-11-19T13:18:53;13.70;;;3.95;;
16246;SDS011;8231;50.866;7.944;2023-11-19T13:21:23;14.43;;;4.07;;
16246;SDS011;8231;50.866;7.944;2023-11-19T13:23:52;12.90;;;4.57;;
16246;SDS011;8231;50.866;7.944;2023-11-19T13:26:21;14.52;;;4.22;;
16246;SDS011;8231;50.866;7.944;2023-11-19T13:28:49;13.60;;;6.40;;
16246;SDS011;8231;50.866;7.944;2023-11-19T13:31:18;16.08;;;6.30;;
16246;SDS011;8231;50.866;7.944;2023-11-19T13:33:48;13.77;;;3.95;;
16246;SDS011;8231;50.866;7.944;2023-11-19T13:36:16;11.38;;;4.50;;
16246;SDS011;8231;50.866;7.944;2023-11-19T13:38:45;16.45;;;4.38;;
16246;SDS011;8231;50.866;7.944;2023-11-19T13:41:14;10.35;;;3.97;;
16246;SDS011;8231;50.866;7.944;2023-11-19T13:43:44;13.75;;;4.88;;
16246;SDS011;8231;50.866;7.944;2023-11-19T13:46:12;13.52;;;4.75;;
16246;SDS011;8231;50.866;7.944;2023-11-19T13:48:41;16.58;;;4.20;;
16246;SDS011;8231;50.866;7.944;2023-11-19T13:51:11;9.68;;;3.10;;
16246;SDS011;8231;50.866;7.944;2023-11-19T13:53:39;9.00;;;3.22;;
16246;SDS011;8231;50.866;7.944;2023-11-19T13:56:11;11.45;;;3.47;;
16246;SDS011;8231;50.866;7.944;2023-11-19T13:58:39;15.98;;;4.13;;
16246;SDS011;8231;50.866;7.944;2023-11-19T14:01:07;11.45;;;3.88;;
16246;SDS011;8231;50.866;7.944;2023-11-19T14:03:36;14.80;;;4.95;;
16246;SDS011;8231;50.866;7.944;2023-11-19T14:06:05;15.30;;;6.75;;
16246;SDS011;8231;50.866;7.944;2023-11-19T14:08:36;11.93;;;3.30;;
16246;SDS011;8231;50.866;7.944;2023-11-19T14:11:05;14.18;;;8.25;;
16246;SDS011;8231;50.866;7.944;2023-11-19T14:13:33;10.18;;;3.35;;
16246;SDS011;8231;50.866;7.944;2023-11-19T14:16:02;10.45;;;3.75;;
16246;SDS011;8231;50.866;7.944;2023-11-19T14:18:33;12.15;;;4.30;;
16246;SDS011;8231;50.866;7.944;2023-11-19T14:21:02;15.15;;;4.30;;
16246;SDS011;8231;50.866;7.944;2023-11-19T14:23:31;11.57;;;4.15;;
16246;SDS011;8231;50.866;7.944;2023-11-19T14:26:01;13.68;;;9.68;;
16246;SDS011;8231;50.866;7.944;2023-11-19T14:28:29;9.80;;;3.30;;
16246;SDS011;8231;50.866;7.944;2023-11-19T14:30:58;19.50;;;8.23;;
16246;SDS011;8231;50.866;7.944;2023-11-19T14:33:26;12.27;;;5.18;;
16246;SDS011;8231;50.866;7.944;2023-11-19T14:35:55;14.13;;;4.30;;
16246;SDS011;8231;50.866;7.944;2023-11-19T14:38:23;13.55;;;4.72;;
16246;SDS011;8231;50.866;7.944;2023-11-19T14:40:52;11.40;;;4.50;;
16246;SDS011;8231;50.866;7.944;2023-11-19T14:43:22;14.15;;;8.70;;
16246;SDS011;8231;50.866;7.944;2023-11-19T14:45:51;18.08;;;8.90;;
16246;SDS011;8231;50.866;7.944;2023-11-19T14:48:22;14.68;;;4.88;;
16246;SDS011;8231;50.866;7.944;2023-11-19T14:50:50;11.95;;;3.47;;
16246;SDS011;8231;50.866;7.944;2023-11-19T14:53:19;7.40;;;3.83;;
16246;SDS011;8231;50.866;7.944;2023-11-19T14:55:47;15.02;;;3.95;;
16246;SDS011;8231;50.866;7.944;2023-11-19T14:58:16;19.10;;;5.18;;
16246;SDS011;8231;50.866;7.944;2023-11-19T15:00:45;13.52;;;4.00;;
16246;SDS011;8231;50.866;7.944;2023-11-19T15:03:14;10.25;;;3.47;;
16246;SDS011;8231;50.866;7.944;2023-11-19T15:05:45;11.45;;;3.25;;
16246;SDS011;8231;50.866;7.944;2023-11-19T15:08:14;16.95;;;4.78;;
16246;SDS011;8231;50.866;7.944;2023-11-19T15:10:43;12.07;;;4.57;;
16246;SDS011;8231;50.866;7.944;2023-11-19T15:13:13;13.98;;;3.88;;
16246;SDS011;8231;50.866;7.944;2023-11-19T15:15:41;12.05;;;3.58;;
16246;SDS011;8231;50.866;7.944;2023-11-19T15:18:11;15.50;;;5.15;;
16246;SDS011;8231;50.866;7.944;2023-11-19T15:20:40;13.57;;;3.40;;